Aeroporto :
LOGIN :

Iscrizione | Disclaimer

   EN    FR    IT 

 










Sommario :    VFR   VFR Marginale   IFR   IFR Intensivo   IFR Molto Intensivo
Visibilità : 
Base nubi : 
>= 8 km
>= 3000ft
5 / 8 km
1000 / 3000 ft
1500m / 5 km
500 / 1000 ft
800 / 1500m
200 / 500 ft
< 800m
< 200 ft
Simboli :   Temporali  Nebbia  Neve Forte  Precipitazioni Forti  Vento > 20 kt
SIGMETs :   Varie  Temporali  Ghiacco  Turbolenza  Onda orograficha  Ceneri Vulcaniche






- Altitudine del aeroporto : 1079 ft


ETIK - Illesheim Air Base

ULTIMO METAR :
  • 200856Z 00000KT 8000 BR BKN050 01/00 A3089 RMK SLP478 WND DATA ESMTD ALSTG/SLP ESMTD

METARs OBSOLETI :
  • 200756Z 00000KT 8000 BR BKN050 M01/M01 A3088 RMK SLP476 WND DATA ESMTD ALSTG/SLP ESMTD

TAF TAF ETIK
Valido dal 20 a 07 ore il 21 a 13 ore UTC


200709Z 2007/2113 07006KT 9999 OVC050 QNH3085INS
BECMG 2009/2010 06006KT 9999 BKN030 QNH3086INS
BECMG 2015/2016 06009KT 9999 SCT030 QNH3084INS
BECMG 2100/2101 11006KT 9999 SKC QNH3080INS TX03/2013Z TNM03/2103Z



MetMap, La meteo Aeronautica in un colpo d'occhio ! - Copyright ORBIFLY Dicembre 2007 - Disclaimer

ORBIFLY MET'MAP TEAM :

Programmazione e sviluppo : Alexandra Zaïnal
Concezione : Baudouin d'Aumeries
Aiuto per la programmazione : Marc-Olivier Méhu
Supporto tecnico e logistico : Manuel Goepfert
Aiuto per la traduzione : Arnaldo La Scala

Contatto : metmap@orbifly.com




FONTI E CREDITI :

   NOAA